Time;durP1;ratioP1;P1;durP2;ratioP2;P2;SDS_P1;SDS_P2;PMS_P1;PMS_P2;Temp;Humidity;BMP_temperature;BMP_pressure;BME280_temperature;BME280_humidity;BME280_pressure;Samples;Min_cycle;Max_cycle;Signal;HPM_P1;HPM_P2
2022/07/25 04:01:47;;;;;;;6.80;5.60;;;19.50;96.30;;;;;;5508631;23;20547;-78
2022/07/25 04:04:13;;;;;;;5.87;5.37;;;19.50;96.30;;;;;;4998477;28;20912;-79
2022/07/25 04:06:39;;;;;;;5.40;4.90;;;19.70;96.30;;;;;;4998707;28;20422;-79
2022/07/25 04:09:06;;;;;;;5.30;4.80;;;20.20;96.30;;;;;;4998238;28;20201;-78
2022/07/25 04:11:31;;;;;;;6.70;4.80;;;20.40;96.30;;;;;;4997603;28;20227;-79
2022/07/25 04:13:57;;;;;;;5.03;4.60;;;20.50;96.30;;;;;;4997465;28;20444;-79
2022/07/25 04:16:23;;;;;;;7.00;5.03;;;20.70;96.30;;;;;;5000168;28;20174;-80
2022/07/25 04:18:50;;;;;;;8.97;4.70;;;20.90;96.30;;;;;;4996199;28;20432;-79
2022/07/25 04:21:15;;;;;;;8.93;5.07;;;21.00;96.30;;;;;;4995212;28;20208;-76
2022/07/25 04:23:40;;;;;;;8.37;5.03;;;21.00;96.30;;;;;;4995029;28;20754;-76
2022/07/25 04:26:06;;;;;;;5.47;4.70;;;21.10;96.30;;;;;;4995058;28;20245;-76
2022/07/25 04:28:32;;;;;;;10.83;4.30;;;21.40;96.30;;;;;;4994466;28;20194;-76
2022/07/25 04:30:57;;;;;;;5.20;4.50;;;22.00;95.80;;;;;;4995093;28;20653;-78
2022/07/25 04:33:23;;;;;;;5.90;4.97;;;22.30;94.50;;;;;;4996412;28;20177;-78
2022/07/25 04:35:49;;;;;;;6.50;4.30;;;22.70;93.10;;;;;;4995586;28;20204;-78
2022/07/25 04:38:15;;;;;;;7.20;4.80;;;23.30;91.50;;;;;;4994659;28;20463;-78
2022/07/25 04:40:41;;;;;;;5.93;5.07;;;23.20;91.30;;;;;;4995341;28;20189;-79
2022/07/25 04:43:07;;;;;;;7.50;5.13;;;23.30;90.70;;;;;;4995358;28;20280;-78
2022/07/25 04:45:33;;;;;;;7.10;5.13;;;23.40;90.40;;;;;;4995412;28;20181;-78
2022/07/25 04:47:59;;;;;;;8.67;4.67;;;24.00;88.90;;;;;;4994561;28;20428;-78
2022/07/25 04:50:24;;;;;;;5.93;4.10;;;24.20;88.10;;;;;;4995291;28;20434;-78
2022/07/25 04:52:51;;;;;;;9.80;4.90;;;24.30;87.20;;;;;;4995117;28;20189;-78
2022/07/25 04:55:16;;;;;;;5.97;4.37;;;24.30;87.40;;;;;;4995159;28;20173;-78
2022/07/25 04:57:42;;;;;;;8.20;5.17;;;24.70;86.10;;;;;;4994555;28;20771;-78
2022/07/25 05:00:09;;;;;;;5.17;4.00;;;24.90;85.70;;;;;;4995108;28;20177;-78
2022/07/25 05:02:35;;;;;;;6.43;4.70;;;25.40;84.80;;;;;;4994951;28;20219;-79
2022/07/25 05:05:01;;;;;;;4.53;4.13;;;25.00;85.60;;;;;;4994213;28;20503;-78
2022/07/25 05:07:27;;;;;;;4.90;4.50;;;25.80;83.20;;;;;;4983178;28;20444;-78
2022/07/25 05:09:52;;;;;;;5.57;4.50;;;26.20;83.10;;;;;;4964019;28;20272;-79
2022/07/25 05:12:18;;;;;;;7.97;4.77;;;26.30;82.20;;;;;;4958629;28;20198;-76
2022/07/25 05:14:43;;;;;;;8.77;4.10;;;26.80;80.60;;;;;;4955959;28;20182;-76
2022/07/25 05:17:09;;;;;;;8.13;4.40;;;26.60;81.40;;;;;;4956099;28;20257;-77
2022/07/25 05:19:35;;;;;;;5.90;4.53;;;27.10;79.60;;;;;;4955582;28;20178;-76
2022/07/25 05:22:01;;;;;;;5.17;4.07;;;26.90;80.20;;;;;;4955991;28;20654;-76
2022/07/25 05:24:26;;;;;;;7.13;4.27;;;26.30;82.00;;;;;;4955861;28;20175;-75
2022/07/25 05:26:52;;;;;;;7.13;4.80;;;27.20;79.90;;;;;;4955991;28;20174;-76
2022/07/25 05:29:18;;;;;;;5.00;4.20;;;27.20;79.60;;;;;;4955158;28;20206;-76
2022/07/25 05:31:44;;;;;;;5.00;4.60;;;27.40;79.80;;;;;;4955781;28;20198;-76
2022/07/25 05:34:10;;;;;;;4.80;4.03;;;28.00;78.30;;;;;;4955765;28;20428;-78
2022/07/25 05:36:35;;;;;;;4.10;3.70;;;28.00;78.70;;;;;;4963672;28;20181;-77
2022/07/25 05:39:01;;;;;;;4.73;4.20;;;27.80;78.10;;;;;;4974324;28;20265;-76
2022/07/25 05:41:26;;;;;;;4.53;3.97;;;27.60;78.80;;;;;;4990360;28;20239;-75
2022/07/25 05:43:52;;;;;;;4.37;4.07;;;28.40;77.40;;;;;;4994319;28;20272;-76
2022/07/25 05:46:17;;;;;;;9.60;4.57;;;28.70;76.80;;;;;;4994187;28;20177;-76
2022/07/25 05:48:43;;;;;;;4.97;4.47;;;28.70;75.30;;;;;;4993574;28;20216;-76
2022/07/25 05:51:09;;;;;;;6.93;3.93;;;28.60;76.10;;;;;;4994222;28;20478;-76
2022/07/25 05:53:35;;;;;;;6.20;4.43;;;28.50;76.80;;;;;;4994068;28;20184;-76
2022/07/25 05:56:00;;;;;;;4.93;4.50;;;28.90;76.80;;;;;;4994350;28;20284;-76
2022/07/25 05:58:26;;;;;;;4.73;3.70;;;29.20;75.60;;;;;;4993398;28;20180;-78
2022/07/25 06:00:52;;;;;;;5.47;4.40;;;29.80;74.70;;;;;;4993851;28;20287;-76
2022/07/25 06:03:18;;;;;;;4.57;4.17;;;29.50;74.70;;;;;;4993938;28;20213;-76
2022/07/25 06:05:45;;;;;;;10.60;4.40;;;29.20;75.90;;;;;;4992737;28;20173;-76
2022/07/25 06:08:14;;;;;;;8.35;4.40;;;29.80;74.20;;;;;;4993219;28;20676;-78
2022/07/25 06:10:40;;;;;;;7.17;4.00;;;30.00;73.00;;;;;;4994049;28;20583;-76
2022/07/25 06:13:06;;;;;;;7.90;3.63;;;30.10;74.00;;;;;;4993900;28;20183;-76
2022/07/25 06:15:32;;;;;;;6.35;4.53;;;30.40;73.10;;;;;;4993872;28;20181;-76
2022/07/25 06:17:57;;;;;;;4.60;4.18;;;31.20;72.20;;;;;;4991994;28;20185;-75
2022/07/25 06:20:23;;;;;;;4.35;4.00;;;32.20;70.10;;;;;;4992759;28;20176;-75
2022/07/25 06:22:48;;;;;;;5.32;4.28;;;32.40;69.20;;;;;;4993451;28;20673;-75
2022/07/25 06:25:14;;;;;;;6.43;4.40;;;31.70;69.70;;;;;;4993666;28;20191;-76
2022/07/25 06:27:40;;;;;;;4.43;3.95;;;31.80;69.70;;;;;;4993011;28;20177;-76
2022/07/25 06:30:07;;;;;;;8.40;4.63;;;31.20;70.90;;;;;;4992495;28;20209;-76
2022/07/25 06:32:32;;;;;;;6.47;4.47;;;31.30;71.50;;;;;;4993523;28;20248;-75
2022/07/25 06:34:58;;;;;;;4.72;4.18;;;32.00;70.20;;;;;;4992423;28;20169;-75
2022/07/25 06:37:23;;;;;;;4.20;3.80;;;32.30;68.80;;;;;;4993491;28;20535;-80
2022/07/25 06:39:49;;;;;;;4.50;4.10;;;30.60;71.70;;;;;;4993176;28;20605;-75
2022/07/25 06:42:14;;;;;;;4.40;4.00;;;30.70;72.60;;;;;;4993645;28;20743;-75
2022/07/25 06:44:40;;;;;;;4.23;3.83;;;31.20;71.30;;;;;;4993549;28;20185;-77
2022/07/25 06:47:11;;;;;;;5.90;4.43;;;31.00;71.00;;;;;;4993523;28;20583;-75
2022/07/25 06:49:40;;;;;;;8.20;4.10;;;31.30;71.90;;;;;;4991549;28;20294;-76
2022/07/25 06:52:06;;;;;;;4.60;3.92;;;32.00;70.30;;;;;;4992069;28;20197;-75
2022/07/25 06:54:31;;;;;;;5.78;4.43;;;32.00;70.40;;;;;;4993494;28;20180;-75
2022/07/25 06:56:57;;;;;;;6.22;4.50;;;32.70;69.20;;;;;;4993366;28;20279;-75
2022/07/25 06:59:22;;;;;;;6.63;4.10;;;33.30;68.20;;;;;;4992668;28;20308;-77
2022/07/25 07:01:48;;;;;;;6.63;5.15;;;32.70;68.90;;;;;;4993093;28;20204;-75
2022/07/25 07:04:14;;;;;;;7.57;4.57;;;33.50;67.50;;;;;;4993225;28;20180;-75
2022/07/25 07:06:39;;;;;;;7.93;4.32;;;33.90;66.60;;;;;;4993573;28;20205;-75
2022/07/25 07:09:05;;;;;;;6.75;4.30;;;33.60;66.20;;;;;;4992383;28;20207;-77
2022/07/25 07:11:30;;;;;;;11.10;4.95;;;33.20;67.60;;;;;;4993101;28;20189;-75
2022/07/25 07:13:56;;;;;;;5.28;4.30;;;33.40;67.40;;;;;;4993258;28;20176;-75
2022/07/25 07:16:21;;;;;;;4.22;3.83;;;33.60;66.50;;;;;;4993164;28;20227;-75
2022/07/25 07:18:47;;;;;;;5.75;4.25;;;33.60;67.00;;;;;;4992510;28;20395;-77
2022/07/25 07:21:12;;;;;;;5.05;4.55;;;34.20;65.90;;;;;;4993070;28;20243;-75
2022/07/25 07:23:38;;;;;;;4.88;4.38;;;33.60;66.00;;;;;;4993088;28;20181;-76
2022/07/25 07:26:03;;;;;;;9.57;3.80;;;33.20;67.60;;;;;;4992910;28;20212;-75
2022/07/25 07:28:29;;;;;;;4.82;4.35;;;33.60;66.70;;;;;;4991885;28;20235;-76
2022/07/25 07:30:54;;;;;;;4.65;4.25;;;34.70;65.50;;;;;;4991753;28;20547;-75
2022/07/25 07:33:20;;;;;;;4.25;3.92;;;34.10;65.10;;;;;;4992978;28;20180;-76
2022/07/25 07:35:45;;;;;;;7.20;4.82;;;33.80;65.60;;;;;;4991795;28;20548;-76
2022/07/25 07:38:11;;;;;;;5.13;4.65;;;34.30;65.80;;;;;;4992356;28;20263;-76
2022/07/25 07:40:36;;;;;;;4.57;4.18;;;34.60;64.50;;;;;;4992700;28;20319;-75
2022/07/25 07:43:02;;;;;;;4.60;4.20;;;34.10;65.60;;;;;;4993066;28;20181;-77
2022/07/25 07:45:29;;;;;;;7.55;4.32;;;34.90;64.90;;;;;;4993151;28;20205;-78
2022/07/25 07:47:55;;;;;;;4.82;4.43;;;35.10;62.40;;;;;;4992264;28;20177;-76
2022/07/25 07:50:24;;;;;;;4.05;3.75;;;34.70;64.50;;;;;;4992949;28;20177;-75
2022/07/25 07:52:50;;;;;;;7.53;4.88;;;35.40;62.70;;;;;;4992933;28;20201;-75
2022/07/25 07:58:00;;;;;;;4.10;3.78;;;34.10;62.80;;;;;;4992600;28;20188;-75
2022/07/25 08:00:29;;;;;;;4.93;4.53;;;33.90;63.00;;;;;;4992889;28;20573;-75
2022/07/25 08:02:56;;;;;;;10.20;4.60;;;34.00;63.50;;;;;;4992886;28;20204;-75
2022/07/25 08:05:29;;;;;;;4.68;4.30;;;33.70;63.40;;;;;;4992889;28;20169;-75
2022/07/25 08:07:55;;;;;;;4.75;4.35;;;33.10;64.60;;;;;;4992101;28;20188;-76
2022/07/25 08:10:24;;;;;;;8.82;4.50;;;33.70;63.40;;;;;;4992548;28;20165;-76
2022/07/25 08:12:49;;;;;;;5.68;4.20;;;34.60;63.00;;;;;;4993121;28;20193;-76
2022/07/25 08:15:16;;;;;;;5.38;4.43;;;35.20;61.40;;;;;;4992881;28;20176;-77
2022/07/25 08:17:43;;;;;;;5.20;4.68;;;35.70;60.60;;;;;;4992373;28;20181;-75
2022/07/25 08:20:09;;;;;;;4.30;3.90;;;36.20;59.90;;;;;;4992865;28;20265;-75
2022/07/25 08:22:46;;;;;;;4.82;4.38;;;37.00;60.60;;;;;;4991286;28;20209;-75
2022/07/25 08:25:18;;;;;;;5.60;4.32;;;36.30;57.50;;;;;;4991655;28;20645;-75
2022/07/25 08:27:44;;;;;;;5.10;3.83;;;35.40;59.30;;;;;;4992253;28;20231;-76
2022/07/25 08:30:11;;;;;;;4.22;3.90;;;35.10;59.60;;;;;;4992761;28;20619;-75
2022/07/25 08:32:49;;;;;;;4.47;4.07;;;34.70;59.90;;;;;;4993651;28;20239;-76
2022/07/25 08:35:16;;;;;;;8.50;5.13;;;34.00;59.30;;;;;;4993783;28;20169;-77
2022/07/25 08:37:41;;;;;;;7.95;4.45;;;34.10;59.60;;;;;;4993690;28;20173;-76
2022/07/25 08:40:07;;;;;;;12.52;6.18;;;33.60;60.70;;;;;;4993439;28;20188;-75
2022/07/25 08:42:33;;;;;;;4.70;4.28;;;33.90;61.40;;;;;;4995890;28;20212;-76
2022/07/25 08:45:03;;;;;;;6.50;4.30;;;33.70;60.50;;;;;;4996166;28;20633;-77
2022/07/25 08:47:29;;;;;;;6.93;4.75;;;34.60;59.60;;;;;;4996837;28;20223;-75
2022/07/25 08:49:55;;;;;;;4.30;3.90;;;33.80;61.50;;;;;;4997436;28;20228;-77
2022/07/25 08:52:22;;;;;;;4.97;4.13;;;34.60;61.10;;;;;;4997808;28;20189;-77
2022/07/25 08:54:48;;;;;;;5.63;4.40;;;34.60;60.90;;;;;;4996441;28;20179;-76
2022/07/25 08:57:14;;;;;;;6.13;3.73;;;34.90;58.90;;;;;;4997024;28;20177;-76
2022/07/25 08:59:40;;;;;;;4.93;4.10;;;34.50;58.20;;;;;;4995460;28;20212;-77
2022/07/25 09:02:07;;;;;;;4.93;4.27;;;34.30;60.10;;;;;;4996971;28;20232;-77
2022/07/25 09:04:34;;;;;;;6.30;4.30;;;34.30;60.10;;;;;;4997762;28;20656;-77
2022/07/25 09:07:03;;;;;;;6.03;3.93;;;34.30;59.00;;;;;;4996962;28;20539;-76
2022/07/25 09:09:34;;;;;;;4.05;3.65;;;34.70;59.20;;;;;;4997204;28;20197;-77
2022/07/25 09:12:00;;;;;;;5.57;4.15;;;34.60;59.00;;;;;;5005227;28;20201;-77
2022/07/25 09:14:27;;;;;;;4.40;4.00;;;33.90;59.50;;;;;;5017252;28;20180;-78
2022/07/25 09:16:52;;;;;;;6.70;4.30;;;34.10;59.50;;;;;;5004679;28;20215;-76
2022/07/25 09:19:20;;;;;;;4.33;4.03;;;34.00;59.80;;;;;;4995243;28;20534;-76
2022/07/25 09:22:02;;;;;;;4.97;4.47;;;33.60;60.10;;;;;;4994977;28;20197;-76
2022/07/25 09:24:29;;;;;;;8.20;4.20;;;33.40;60.80;;;;;;4995065;28;20181;-75
2022/07/25 09:26:57;;;;;;;5.25;4.43;;;34.10;60.70;;;;;;4997817;28;20181;-76
2022/07/25 09:29:29;;;;;;;5.13;3.43;;;33.80;60.50;;;;;;4997366;28;20677;-75
2022/07/25 09:31:55;;;;;;;6.67;3.70;;;34.30;59.40;;;;;;4996304;28;20595;-75
2022/07/25 09:34:35;;;;;;;5.00;4.50;;;34.20;60.00;;;;;;4996882;28;20173;-75
2022/07/25 09:37:06;;;;;;;5.23;4.30;;;33.40;59.80;;;;;;4996398;28;20255;-76
2022/07/25 09:39:43;;;;;;;5.70;4.10;;;33.00;61.60;;;;;;4993971;28;20442;-77
2022/07/25 09:42:18;;;;;;;9.30;4.30;;;33.00;62.50;;;;;;4994730;28;20485;-76
2022/07/25 09:44:55;;;;;;;9.23;4.20;;;32.60;61.60;;;;;;4994621;28;20824;-77
2022/07/25 09:47:21;;;;;;;4.67;4.07;;;32.50;60.70;;;;;;4994514;28;20419;-76
2022/07/25 09:49:47;;;;;;;4.53;4.13;;;32.60;61.00;;;;;;4993784;28;20452;-76
2022/07/25 09:52:12;;;;;;;4.07;3.67;;;32.80;60.70;;;;;;4994025;28;20196;-78
2022/07/25 09:54:39;;;;;;;4.50;4.10;;;33.00;60.30;;;;;;4993346;28;20177;-76
2022/07/25 09:57:05;;;;;;;6.53;3.70;;;32.90;60.00;;;;;;4994425;28;20188;-76
2022/07/25 09:59:33;;;;;;;3.90;3.60;;;33.10;59.80;;;;;;4993752;28;20409;-77
2022/07/25 10:02:13;;;;;;;6.00;4.47;;;32.90;59.60;;;;;;4994168;28;20216;-77
2022/07/25 10:04:45;;;;;;;4.40;3.83;;;33.30;59.90;;;;;;4994334;28;20448;-76
2022/07/25 10:07:14;;;;;;;6.73;3.90;;;32.90;60.60;;;;;;4994181;28;20478;-76
2022/07/25 10:09:44;;;;;;;4.67;4.27;;;32.80;60.60;;;;;;4993439;28;20455;-76
2022/07/25 10:12:13;;;;;;;4.47;4.07;;;32.70;59.80;;;;;;4994046;28;20444;-75
2022/07/25 10:14:38;;;;;;;6.97;3.53;;;32.80;59.10;;;;;;4994215;28;20430;-76
2022/07/25 10:17:08;;;;;;;3.90;3.50;;;32.20;59.90;;;;;;4994627;28;20966;-78
2022/07/25 10:19:47;;;;;;;5.40;3.87;;;32.20;59.70;;;;;;4993483;28;20243;-78
2022/07/25 12:10:58;;;;;;;13.30;6.60;;;33.40;62.90;;;;;;5741820;23;20487;-77
2022/07/25 12:13:25;;;;;;;13.43;6.80;;;33.50;62.50;;;;;;4992424;28;20405;-77
2022/07/25 12:15:51;;;;;;;7.33;6.60;;;33.60;63.30;;;;;;4995831;28;20267;-78
2022/07/25 12:18:17;;;;;;;6.60;6.10;;;34.00;63.00;;;;;;4994185;28;20311;-77
2022/07/25 12:20:43;;;;;;;10.85;6.18;;;34.30;62.00;;;;;;4996040;28;20245;-77
2022/07/25 12:23:10;;;;;;;7.03;5.23;;;33.50;61.90;;;;;;4995845;28;20185;-77
2022/07/25 12:25:38;;;;;;;6.03;5.38;;;33.20;62.90;;;;;;4996064;28;20173;-77
2022/07/25 12:28:04;;;;;;;16.57;5.10;;;32.90;63.50;;;;;;4995326;28;20185;-77
2022/07/25 12:30:30;;;;;;;5.27;4.77;;;33.20;63.10;;;;;;4995569;28;20169;-78
2022/07/25 12:32:57;;;;;;;7.30;4.97;;;33.20;62.70;;;;;;4995682;28;20823;-77
2022/07/25 12:35:23;;;;;;;5.40;4.80;;;33.20;62.80;;;;;;4995818;28;20195;-77
2022/07/25 12:37:49;;;;;;;6.80;4.63;;;33.30;62.40;;;;;;4995123;28;20420;-77
2022/07/25 12:40:15;;;;;;;4.77;4.37;;;33.30;61.50;;;;;;5001391;28;20187;-77
2022/07/25 12:42:41;;;;;;;8.27;5.57;;;33.70;60.40;;;;;;5015134;28;20203;-77
2022/07/25 12:45:07;;;;;;;6.80;4.83;;;34.10;61.30;;;;;;5015024;28;20525;-78
2022/07/25 12:47:33;;;;;;;13.40;4.80;;;33.50;62.00;;;;;;5014434;28;20259;-77
2022/07/25 12:49:59;;;;;;;6.43;4.87;;;33.60;62.20;;;;;;5014838;28;20664;-77
2022/07/25 12:52:25;;;;;;;7.67;4.20;;;33.80;61.30;;;;;;5015037;28;20639;-77
2022/07/25 12:54:50;;;;;;;10.00;4.90;;;33.40;60.30;;;;;;5014829;28;20176;-78
2022/07/25 12:57:16;;;;;;;5.00;4.60;;;33.60;60.50;;;;;;5014853;28;20230;-77
2022/07/25 12:59:43;;;;;;;5.40;4.60;;;33.90;62.00;;;;;;5014270;28;20204;-77
2022/07/25 13:02:09;;;;;;;19.57;4.60;;;34.20;60.30;;;;;;5014708;28;20192;-78
2022/07/25 13:04:35;;;;;;;4.10;3.80;;;34.30;60.30;;;;;;5014835;28;20191;-78
2022/07/25 13:07:01;;;;;;;9.13;4.77;;;34.20;58.90;;;;;;5014936;28;20180;-77
2022/07/25 13:09:27;;;;;;;5.97;4.07;;;34.40;60.60;;;;;;5009412;28;20185;-77
2022/07/25 13:11:53;;;;;;;4.40;4.10;;;34.50;59.50;;;;;;4994891;28;20213;-77
2022/07/25 13:14:19;;;;;;;5.07;4.05;;;34.30;57.50;;;;;;4994913;28;20173;-77
2022/07/25 13:16:46;;;;;;;18.40;4.45;;;34.30;59.20;;;;;;4994804;28;20704;-77
2022/07/25 13:19:13;;;;;;;4.85;4.40;;;34.50;58.40;;;;;;5009338;28;20292;-77
2022/07/25 13:21:39;;;;;;;7.45;4.88;;;34.60;59.00;;;;;;4994741;28;20236;-77
2022/07/25 13:24:08;;;;;;;7.00;4.25;;;34.80;57.90;;;;;;4994892;28;20212;-77
2022/07/25 13:26:35;;;;;;;5.63;3.97;;;35.10;58.60;;;;;;4994007;28;20228;-77
2022/07/25 13:29:01;;;;;;;11.38;4.53;;;35.30;56.40;;;;;;4994033;28;20280;-77
2022/07/25 13:31:27;;;;;;;5.82;3.72;;;34.90;55.40;;;;;;5009539;28;20689;-77
2022/07/25 13:33:53;;;;;;;5.18;3.90;;;34.80;54.80;;;;;;4994702;28;20185;-77
2022/07/25 13:36:18;;;;;;;4.47;3.63;;;34.30;56.50;;;;;;4994729;28;20576;-77
2022/07/25 13:38:45;;;;;;;4.32;3.92;;;34.60;56.10;;;;;;4993917;28;20536;-77
2022/07/25 13:41:12;;;;;;;4.55;4.15;;;34.70;55.70;;;;;;5007673;28;20200;-77
2022/07/25 13:43:37;;;;;;;3.95;3.65;;;35.10;55.70;;;;;;5014034;28;20177;-77
2022/07/25 13:46:03;;;;;;;7.75;3.60;;;35.30;54.70;;;;;;5014197;28;20585;-77
2022/07/25 13:48:29;;;;;;;5.60;3.88;;;35.00;54.30;;;;;;5013220;28;20204;-77
2022/07/25 13:50:56;;;;;;;4.13;3.38;;;35.00;54.90;;;;;;5013811;28;20224;-77
2022/07/25 13:53:21;;;;;;;8.57;4.47;;;35.40;52.90;;;;;;5014085;28;20179;-77
2022/07/25 13:55:47;;;;;;;4.38;3.90;;;35.80;54.70;;;;;;5013456;28;20279;-80
2022/07/25 13:58:13;;;;;;;4.38;3.83;;;35.70;54.20;;;;;;5018094;28;20169;-80
2022/07/25 14:00:39;;;;;;;4.10;3.80;;;35.80;53.50;;;;;;5019314;28;20319;-79
2022/07/25 14:03:04;;;;;;;5.72;3.75;;;36.10;54.40;;;;;;5014012;28;20183;-80
2022/07/25 14:05:30;;;;;;;5.28;3.58;;;36.00;54.00;;;;;;5000179;28;20231;-81
2022/07/25 14:07:56;;;;;;;6.95;3.78;;;36.00;54.00;;;;;;5000006;28;20193;-81
2022/07/25 14:10:21;;;;;;;11.10;4.00;;;36.10;53.40;;;;;;4994335;28;20200;-78
2022/07/25 14:12:47;;;;;;;6.25;4.00;;;35.70;54.30;;;;;;4993092;28;20649;-77
2022/07/25 14:15:12;;;;;;;4.20;3.80;;;35.60;53.90;;;;;;4995791;28;20264;-80
2022/07/25 14:17:38;;;;;;;7.13;4.15;;;35.50;55.10;;;;;;4996257;28;20563;-76
2022/07/25 14:20:05;;;;;;;5.80;3.97;;;36.10;53.90;;;;;;4993974;28;20188;-78
2022/07/25 14:22:31;;;;;;;5.95;4.18;;;36.20;53.60;;;;;;4993906;28;20197;-76
2022/07/25 14:24:56;;;;;;;4.85;3.42;;;36.10;54.30;;;;;;4993663;28;20188;-76
2022/07/25 14:27:22;;;;;;;6.53;3.42;;;36.30;54.00;;;;;;4994009;28;20176;-77
2022/07/25 14:29:48;;;;;;;4.43;3.72;;;36.50;53.70;;;;;;4992919;28;20295;-78
2022/07/25 14:32:13;;;;;;;4.47;4.00;;;36.50;52.70;;;;;;4993511;28;20204;-76
2022/07/25 14:34:39;;;;;;;4.85;4.22;;;36.10;53.50;;;;;;4993547;28;20181;-76
2022/07/25 14:37:07;;;;;;;4.65;3.90;;;36.00;54.20;;;;;;4992887;28;20200;-77
2022/07/25 14:39:33;;;;;;;4.10;3.70;;;36.30;55.20;;;;;;4992645;28;20189;-76
2022/07/25 14:41:58;;;;;;;4.97;4.07;;;36.60;53.50;;;;;;5013147;28;20200;-77
2022/07/25 14:44:27;;;;;;;4.35;4.03;;;35.90;54.50;;;;;;5013142;28;20180;-76
2022/07/25 14:46:55;;;;;;;5.32;3.70;;;36.00;54.30;;;;;;5013022;28;20173;-76
2022/07/25 14:49:21;;;;;;;4.55;4.00;;;35.90;53.10;;;;;;5012864;28;20192;-78
2022/07/25 14:51:47;;;;;;;5.85;3.88;;;35.80;53.90;;;;;;5012843;28;20184;-77
2022/07/25 14:54:13;;;;;;;4.82;4.45;;;35.80;53.50;;;;;;5011705;28;20176;-78
2022/07/25 14:56:39;;;;;;;6.22;4.32;;;35.90;53.70;;;;;;5012809;28;20164;-79
2022/07/25 14:59:05;;;;;;;5.57;4.50;;;35.90;54.10;;;;;;5012625;28;20319;-76
2022/07/25 15:01:31;;;;;;;4.30;4.00;;;36.10;53.90;;;;;;5012777;28;20230;-77
2022/07/25 15:03:56;;;;;;;8.23;4.30;;;36.10;55.00;;;;;;5012774;28;20222;-77
2022/07/25 15:06:23;;;;;;;5.80;3.97;;;36.10;54.00;;;;;;5012712;28;20184;-77
2022/07/25 15:08:51;;;;;;;5.85;4.72;;;35.90;53.30;;;;;;5012387;28;20200;-77
2022/07/25 15:11:18;;;;;;;4.45;4.15;;;35.30;54.70;;;;;;5008781;28;20205;-77
2022/07/25 15:13:43;;;;;;;4.82;4.35;;;34.50;55.80;;;;;;4994393;28;20201;-77
2022/07/25 15:16:11;;;;;;;5.25;3.80;;;34.30;56.30;;;;;;4994051;28;20169;-77
2022/07/25 15:18:37;;;;;;;6.82;4.28;;;34.30;56.40;;;;;;4995167;28;20177;-78
2022/07/25 15:21:02;;;;;;;9.32;4.65;;;34.10;56.90;;;;;;4996109;28;20192;-77
2022/07/25 15:23:28;;;;;;;5.10;4.60;;;34.70;56.70;;;;;;4994316;28;20235;-78
2022/07/25 15:25:54;;;;;;;8.80;3.97;;;35.30;56.20;;;;;;4995324;28;20188;-77
2022/07/25 15:28:20;;;;;;;11.10;4.05;;;35.50;55.00;;;;;;4993522;28;20180;-77
2022/07/25 15:30:50;;;;;;;5.50;4.07;;;35.30;55.40;;;;;;4995765;28;20251;-77
2022/07/25 15:33:17;;;;;;;4.25;3.85;;;35.50;55.30;;;;;;4994279;28;20305;-77
2022/07/25 15:35:46;;;;;;;4.70;4.30;;;35.90;55.00;;;;;;4994434;28;20231;-78
2022/07/25 15:38:14;;;;;;;5.13;3.83;;;35.40;54.10;;;;;;4994102;28;20264;-77
2022/07/25 15:40:40;;;;;;;4.30;3.90;;;34.80;55.70;;;;;;5002580;28;20168;-77
2022/07/25 15:43:06;;;;;;;5.80;4.35;;;34.50;56.20;;;;;;5013770;28;20187;-77
2022/07/25 15:45:31;;;;;;;8.95;3.80;;;34.20;57.00;;;;;;5013490;28;20165;-77
2022/07/25 15:47:59;;;;;;;3.85;3.47;;;34.20;56.20;;;;;;5013373;28;20172;-77
2022/07/25 15:50:24;;;;;;;6.95;4.03;;;34.60;54.90;;;;;;5009813;28;20739;-77
2022/07/25 15:52:50;;;;;;;8.02;4.28;;;35.10;56.00;;;;;;4989505;28;20200;-77
2022/07/25 15:55:15;;;;;;;4.40;4.00;;;35.40;53.70;;;;;;4993478;28;20546;-78
2022/07/25 15:57:41;;;;;;;4.63;3.95;;;35.40;53.70;;;;;;4994915;28;20545;-78
2022/07/25 16:00:08;;;;;;;4.95;4.45;;;35.70;54.00;;;;;;4996563;28;20165;-77
2022/07/25 16:02:34;;;;;;;4.10;3.80;;;36.00;56.30;;;;;;4995844;28;20200;-77
2022/07/25 16:05:01;;;;;;;7.47;3.83;;;36.30;53.60;;;;;;4996487;28;20181;-78
2022/07/25 16:07:27;;;;;;;5.28;3.63;;;36.20;52.20;;;;;;4995851;28;20192;-77
2022/07/25 16:09:54;;;;;;;9.93;4.00;;;36.10;53.00;;;;;;4994070;28;20207;-77
2022/07/25 16:12:23;;;;;;;5.93;4.20;;;35.90;51.80;;;;;;4992526;28;20335;-79
2022/07/25 16:14:49;;;;;;;4.60;4.15;;;36.00;53.90;;;;;;4996296;28;20172;-77
2022/07/25 16:17:15;;;;;;;6.63;3.55;;;36.10;51.90;;;;;;4996081;28;20173;-77
2022/07/25 16:19:40;;;;;;;5.40;3.78;;;35.90;53.70;;;;;;4995761;28;20247;-77
2022/07/25 16:22:06;;;;;;;4.28;3.88;;;35.40;53.40;;;;;;4994542;28;20692;-78
2022/07/25 16:24:31;;;;;;;6.20;3.78;;;34.60;53.70;;;;;;4995922;28;20231;-76
2022/07/25 16:26:58;;;;;;;4.47;3.67;;;33.90;55.30;;;;;;4996036;28;20637;-77
2022/07/25 16:29:23;;;;;;;9.85;3.47;;;33.50;56.30;;;;;;4995420;28;20211;-77
2022/07/25 16:31:48;;;;;;;12.63;3.42;;;33.10;57.60;;;;;;4996012;28;20589;-78
2022/07/25 16:34:14;;;;;;;6.20;4.30;;;32.90;57.30;;;;;;4995963;28;20173;-78
2022/07/25 16:36:40;;;;;;;4.00;3.60;;;32.60;57.50;;;;;;4995777;28;20182;-77
2022/07/25 16:39:05;;;;;;;7.97;3.87;;;32.40;58.60;;;;;;4994093;28;20208;-77
2022/07/25 16:41:31;;;;;;;4.20;3.40;;;32.30;58.60;;;;;;5012000;28;20200;-77
2022/07/25 16:43:56;;;;;;;8.50;3.73;;;32.10;59.40;;;;;;5004047;28;20627;-78
2022/07/25 16:46:22;;;;;;;5.97;3.87;;;32.30;58.80;;;;;;5011684;28;20180;-77
2022/07/25 16:48:47;;;;;;;4.50;4.00;;;32.40;58.50;;;;;;4994903;28;20204;-77
2022/07/25 16:51:13;;;;;;;5.93;4.30;;;32.40;60.20;;;;;;4995490;28;20693;-79
2022/07/25 16:53:40;;;;;;;9.43;4.70;;;32.40;59.50;;;;;;4998237;28;20638;-80
2022/07/25 16:56:06;;;;;;;4.63;3.80;;;32.40;61.20;;;;;;5001270;28;20502;-79
2022/07/25 16:58:32;;;;;;;4.13;3.70;;;32.40;60.20;;;;;;5000675;28;20904;-79
2022/07/25 17:15:00;;;;;;;20.67;16.50;;;32.60;63.00;;;;;;4964232;29;20417;-80
2022/07/25 17:17:25;;;;;;;13.23;11.83;;;32.70;61.40;;;;;;4960997;28;20429;-77
2022/07/25 17:19:51;;;;;;;10.07;7.63;;;32.80;61.80;;;;;;4959036;28;20183;-79
2022/07/25 17:22:16;;;;;;;14.05;10.70;;;33.00;62.30;;;;;;4941725;28;20687;-81
2022/07/25 17:24:42;;;;;;;8.88;7.38;;;33.20;66.00;;;;;;4942186;29;20191;-80
2022/07/25 17:27:08;;;;;;;12.30;6.47;;;33.00;65.60;;;;;;4944001;29;20179;-80
2022/07/25 17:29:34;;;;;;;14.30;8.20;;;32.90;59.40;;;;;;4944112;29;20218;-81
2022/07/25 17:31:59;;;;;;;5.00;4.50;;;32.80;66.80;;;;;;4938592;28;20202;-77
2022/07/25 17:34:25;;;;;;;5.10;4.60;;;32.60;64.50;;;;;;4937056;29;20175;-77
2022/07/25 17:36:52;;;;;;;7.32;4.35;;;32.40;60.40;;;;;;4936962;29;20163;-77
2022/07/25 17:39:17;;;;;;;7.97;5.37;;;32.10;63.50;;;;;;4936629;29;20198;-77
2022/07/25 17:41:43;;;;;;;7.47;5.53;;;31.90;62.30;;;;;;4956003;28;20536;-79
2022/07/25 17:44:08;;;;;;;5.57;5.00;;;31.70;62.30;;;;;;4947725;28;20198;-79
2022/07/25 17:46:34;;;;;;;7.80;5.23;;;31.50;63.50;;;;;;4945681;29;20176;-79
2022/07/25 17:48:59;;;;;;;5.67;5.17;;;31.30;63.80;;;;;;4945181;29;20679;-79
2022/07/25 17:51:25;;;;;;;9.60;4.50;;;31.10;64.60;;;;;;4936756;29;20199;-80
2022/07/25 17:53:51;;;;;;;7.27;4.60;;;30.90;65.10;;;;;;4935933;29;20187;-79
2022/07/25 17:56:16;;;;;;;16.60;5.50;;;30.70;65.90;;;;;;4936704;29;20193;-77
2022/07/25 17:58:42;;;;;;;24.57;5.80;;;29.80;68.90;;;;;;4934987;29;20278;-79
